Time,TemperatureF,DewpointF,PressureIn,WindDirection,WindDirectionDegrees,WindSpeedMPH,WindSpeedGustMPH,Humidity,HourlyPrecipIn,Conditions,Clouds,dailyrainin,SoftwareType,DateUTC
2013-02-07 00:01:00,42.0,42.0,29.99,SSW,208,11.0,19.0,100,0.08,,,0.48,,2013-02-07 08:01:00,
2013-02-07 00:11:00,42.0,42.0,29.99,SSW,208,11.0,19.0,100,0.08,,,0.48,,2013-02-07 08:11:00,
2013-02-07 00:21:00,42.0,42.0,29.99,SSW,208,11.0,19.0,100,0.08,,,0.48,,2013-02-07 08:21:00,
2013-02-07 00:31:00,43.0,43.0,30.00,South,183,11.0,13.0,100,0.02,,,0.49,,2013-02-07 08:31:00,
2013-02-07 00:41:00,43.0,43.0,30.00,South,183,11.0,13.0,100,0.02,,,0.49,,2013-02-07 08:41:00,
2013-02-07 00:52:00,43.0,43.0,29.99,West,260,6.0,14.0,100,0.01,,,0.49,,2013-02-07 08:52:00,
2013-02-07 01:01:00,43.0,43.0,30.00,WSW,247,5.0,16.0,100,0.01,,,0.49,,2013-02-07 09:01:00,
2013-02-07 01:11:00,43.0,43.0,30.00,WSW,252,8.0,13.0,100,0.01,,,0.49,,2013-02-07 09:11:00,
2013-02-07 01:21:00,43.0,43.0,30.00,WSW,252,8.0,13.0,100,0.01,,,0.49,,2013-02-07 09:21:00,
2013-02-07 01:31:00,44.0,43.0,30.01,West,264,5.0,13.0,98,0.01,,,0.49,,2013-02-07 09:31:00,
2013-02-07 01:41:00,44.0,43.0,30.01,West,264,5.0,13.0,98,0.01,,,0.49,,2013-02-07 09:41:00,
2013-02-07 01:52:00,44.0,43.0,30.01,West,264,10.0,15.0,96,0.01,,,0.49,,2013-02-07 09:52:00,
2013-02-07 02:01:00,44.0,42.0,30.01,West,264,7.0,10.0,94,0.00,,,0.49,,2013-02-07 10:01:00,
2013-02-07 02:11:00,44.0,42.0,30.01,West,264,7.0,10.0,94,0.00,,,0.49,,2013-02-07 10:11:00,
2013-02-07 02:21:00,43.0,41.0,30.02,West,260,5.0,10.0,94,0.00,,,0.49,,2013-02-07 10:21:00,
2013-02-07 02:31:00,43.0,41.0,30.02,West,268,5.0,9.0,93,0.00,,,0.49,,2013-02-07 10:31:00,
2013-02-07 02:41:00,43.0,41.0,30.02,West,268,5.0,9.0,93,0.00,,,0.49,,2013-02-07 10:41:00,
2013-02-07 02:52:00,43.0,41.0,30.03,WSW,239,8.0,11.0,92,0.00,,,0.49,,2013-02-07 10:52:00,
2013-02-07 03:01:00,43.0,41.0,30.03,WSW,257,5.0,11.0,92,0.00,,,0.49,,2013-02-07 11:01:00,
2013-02-07 03:11:00,43.0,41.0,30.03,WSW,257,5.0,11.0,92,0.00,,,0.49,,2013-02-07 11:11:00,
2013-02-07 03:22:00,43.0,41.0,30.03,West,260,3.0,10.0,92,0.00,,,0.49,,2013-02-07 11:22:00,
2013-02-07 03:32:00,43.0,41.0,30.03,West,263,5.0,6.0,92,0.00,,,0.49,,2013-02-07 11:32:00,
2013-02-07 03:43:00,43.0,41.0,30.03,West,263,5.0,6.0,92,0.00,,,0.49,,2013-02-07 11:43:00,
2013-02-07 03:52:00,42.0,40.0,30.03,North,0,0.0,6.0,92,0.00,,,0.49,,2013-02-07 11:52:00,
2013-02-07 04:01:00,42.0,40.0,30.03,ESE,114,7.0,9.0,94,0.00,,,0.49,,2013-02-07 12:01:00,
2013-02-07 04:11:00,42.0,40.0,30.03,ESE,114,7.0,9.0,94,0.00,,,0.49,,2013-02-07 12:11:00,
2013-02-07 04:21:00,41.0,40.0,30.03,SSE,155,4.0,9.0,95,0.00,,,0.49,,2013-02-07 12:21:00,
2013-02-07 04:32:00,41.0,40.0,30.03,North,0,0.0,5.0,97,0.00,,,0.49,,2013-02-07 12:32:00,
2013-02-07 04:41:00,41.0,40.0,30.03,North,0,0.0,5.0,97,0.00,,,0.49,,2013-02-07 12:41:00,
2013-02-07 04:53:00,41.0,40.0,30.03,North,0,0.0,0.0,98,0.00,,,0.49,,2013-02-07 12:53:00,
2013-02-07 05:02:00,41.0,41.0,30.04,North,0,0.0,0.0,99,0.05,,,0.49,,2013-02-07 13:02:00,
2013-02-07 05:11:00,41.0,41.0,30.04,North,0,0.0,0.0,99,0.05,,,0.49,,2013-02-07 13:11:00,
2013-02-07 05:21:00,40.0,40.0,30.04,North,0,0.0,0.0,100,0.07,,,0.49,,2013-02-07 13:21:00,
2013-02-07 05:31:00,40.0,40.0,30.03,North,0,0.0,5.0,100,0.08,,,0.57,,2013-02-07 13:31:00,
2013-02-07 05:41:00,40.0,40.0,30.03,North,0,0.0,5.0,100,0.08,,,0.57,,2013-02-07 13:41:00,
2013-02-07 05:52:00,40.0,40.0,30.04,SE,142,2.0,4.0,100,0.08,,,0.57,,2013-02-07 13:52:00,
2013-02-07 06:01:00,40.0,40.0,30.04,ESE,123,6.0,9.0,100,0.03,,,0.57,,2013-02-07 14:01:00,
2013-02-07 06:11:00,40.0,40.0,30.04,ESE,123,6.0,9.0,100,0.03,,,0.57,,2013-02-07 14:11:00,
2013-02-07 06:21:00,40.0,40.0,30.04,SSE,168,8.0,11.0,100,0.01,,,0.57,,2013-02-07 14:21:00,
2013-02-07 06:31:00,39.0,39.0,30.03,ESE,107,7.0,11.0,100,0.00,,,0.57,,2013-02-07 14:31:00,
2013-02-07 06:41:00,39.0,39.0,30.03,ESE,107,7.0,11.0,100,0.00,,,0.57,,2013-02-07 14:41:00,
2013-02-07 06:52:00,39.0,39.0,30.03,ESE,106,7.0,9.0,100,0.00,,,0.57,,2013-02-07 14:52:00,
2013-02-07 07:01:00,39.0,39.0,30.03,ESE,110,10.0,11.0,100,0.00,,,0.57,,2013-02-07 15:01:00,
2013-02-07 07:11:00,39.0,39.0,30.03,ESE,110,10.0,11.0,100,0.00,,,0.57,,2013-02-07 15:11:00,
2013-02-07 07:21:00,39.0,39.0,30.03,ESE,106,9.0,12.0,100,0.00,,,0.57,,2013-02-07 15:21:00,
2013-02-07 07:31:00,39.0,39.0,30.03,ESE,110,10.0,12.0,100,0.00,,,0.57,,2013-02-07 15:31:00,
2013-02-07 07:41:00,39.0,39.0,30.03,ESE,110,10.0,12.0,100,0.00,,,0.57,,2013-02-07 15:41:00,
2013-02-07 07:52:00,39.0,39.0,30.03,ESE,107,9.0,11.0,100,0.00,,,0.57,,2013-02-07 15:52:00,
2013-02-07 08:01:00,39.0,39.0,30.03,East,81,3.0,7.0,100,0.00,,,0.57,,2013-02-07 16:01:00,
2013-02-07 08:11:00,39.0,39.0,30.03,East,81,3.0,7.0,100,0.00,,,0.57,,2013-02-07 16:11:00,
2013-02-07 08:21:00,39.0,39.0,30.04,ESE,106,4.0,7.0,100,0.00,,,0.57,,2013-02-07 16:21:00,
2013-02-07 08:31:00,39.0,39.0,30.04,East,85,7.0,9.0,100,0.00,,,0.57,,2013-02-07 16:31:00,
2013-02-07 08:41:00,39.0,39.0,30.04,East,85,7.0,9.0,100,0.00,,,0.57,,2013-02-07 16:41:00,
2013-02-07 08:52:00,39.0,39.0,30.04,SE,127,6.0,9.0,100,0.00,,,0.57,,2013-02-07 16:52:00,
2013-02-07 09:01:00,40.0,40.0,30.05,SE,128,4.0,7.0,100,0.00,,,0.57,,2013-02-07 17:01:00,
2013-02-07 09:11:00,41.0,41.0,30.06,South,175,6.0,9.0,100,0.00,,,0.57,,2013-02-07 17:11:00,
2013-02-07 09:21:00,41.0,41.0,30.06,South,175,6.0,9.0,100,0.00,,,0.57,,2013-02-07 17:21:00,
2013-02-07 09:31:00,41.0,41.0,30.06,ESE,121,6.0,9.0,100,0.00,,,0.57,,2013-02-07 17:31:00,
2013-02-07 09:41:00,41.0,41.0,30.06,ESE,121,6.0,9.0,100,0.00,,,0.57,,2013-02-07 17:41:00,
2013-02-07 09:52:00,41.0,41.0,30.05,ESE,121,5.0,9.0,100,0.01,,,0.57,,2013-02-07 17:52:00,
2013-02-07 10:01:00,41.0,41.0,30.06,ESE,119,6.0,9.0,100,0.01,,,0.57,,2013-02-07 18:01:00,
2013-02-07 10:11:00,41.0,41.0,30.06,ESE,119,6.0,9.0,100,0.01,,,0.57,,2013-02-07 18:11:00,
2013-02-07 10:22:00,41.0,41.0,30.06,North,0,0.0,7.0,100,0.01,,,0.57,,2013-02-07 18:22:00,
2013-02-07 10:31:00,42.0,42.0,30.06,SSW,212,6.0,7.0,100,0.01,,,0.55,,2013-02-07 18:31:00,
2013-02-07 10:41:00,42.0,42.0,30.06,SSW,212,6.0,7.0,100,0.01,,,0.55,,2013-02-07 18:41:00,
2013-02-07 10:52:00,42.0,42.0,30.06,SSE,161,5.0,7.0,100,0.00,,,0.55,,2013-02-07 18:52:00,
2013-02-07 11:01:00,42.0,42.0,30.06,SSE,151,5.0,7.0,100,0.00,,,0.55,,2013-02-07 19:01:00,
2013-02-07 11:11:00,43.0,43.0,30.06,East,99,3.0,7.0,100,0.00,,,0.55,,2013-02-07 19:11:00,
2013-02-07 11:21:00,43.0,43.0,30.06,East,99,3.0,7.0,100,0.00,,,0.55,,2013-02-07 19:21:00,
2013-02-07 11:31:00,44.0,44.0,30.06,SE,128,8.0,10.0,100,0.00,,,0.52,,2013-02-07 19:31:00,
2013-02-07 11:41:00,44.0,44.0,30.06,SE,128,8.0,10.0,100,0.00,,,0.52,,2013-02-07 19:41:00,
2013-02-07 11:52:00,44.0,43.0,30.05,SE,130,4.0,10.0,98,0.00,,,0.52,,2013-02-07 19:52:00,
2013-02-07 12:01:00,43.0,42.0,30.05,South,177,8.0,9.0,97,0.00,,,0.52,,2013-02-07 20:01:00,
2013-02-07 12:11:00,43.0,42.0,30.05,South,177,8.0,9.0,97,0.00,,,0.52,,2013-02-07 20:11:00,
2013-02-07 12:21:00,43.0,42.0,30.05,SE,144,3.0,10.0,96,0.00,,,0.52,,2013-02-07 20:21:00,
2013-02-07 12:31:00,43.0,42.0,30.05,SSE,159,8.0,9.0,95,0.00,,,0.52,,2013-02-07 20:31:00,
2013-02-07 12:41:00,43.0,42.0,30.05,SSE,159,8.0,9.0,95,0.00,,,0.52,,2013-02-07 20:41:00,
2013-02-07 12:52:00,43.0,42.0,30.05,SW,221,4.0,9.0,95,0.00,,,0.52,,2013-02-07 20:52:00,
2013-02-07 13:01:00,43.0,41.0,30.05,South,190,3.0,10.0,94,0.00,,,0.52,,2013-02-07 21:01:00,
2013-02-07 13:11:00,43.0,41.0,30.05,South,190,3.0,10.0,94,0.00,,,0.52,,2013-02-07 21:11:00,
2013-02-07 13:21:00,44.0,42.0,30.04,South,170,7.0,9.0,94,0.00,,,0.52,,2013-02-07 21:21:00,
2013-02-07 13:31:00,44.0,42.0,30.04,SSE,152,8.0,9.0,92,0.00,,,0.52,,2013-02-07 21:31:00,
2013-02-07 13:41:00,44.0,42.0,30.04,SSE,152,8.0,9.0,92,0.00,,,0.52,,2013-02-07 21:41:00,
2013-02-07 13:52:00,44.0,42.0,30.04,SSW,201,6.0,9.0,92,0.00,,,0.52,,2013-02-07 21:52:00,
2013-02-07 14:01:00,44.0,42.0,30.04,SSW,201,7.0,10.0,94,0.01,,,0.52,,2013-02-07 22:01:00,
2013-02-07 14:11:00,43.0,42.0,30.04,WSW,242,7.0,12.0,95,0.01,,,0.52,,2013-02-07 22:11:00,
2013-02-07 14:21:00,43.0,42.0,30.04,WSW,242,7.0,12.0,95,0.01,,,0.52,,2013-02-07 22:21:00,
2013-02-07 14:31:00,42.0,41.0,30.04,SW,219,8.0,9.0,96,0.02,,,0.52,,2013-02-07 22:31:00,
2013-02-07 14:42:00,42.0,41.0,30.04,SW,219,8.0,9.0,96,0.02,,,0.52,,2013-02-07 22:42:00,
2013-02-07 14:52:00,42.0,41.0,30.04,WNW,288,6.0,11.0,96,0.02,,,0.52,,2013-02-07 22:52:00,
2013-02-07 15:01:00,42.0,41.0,30.04,SSW,205,7.0,9.0,97,0.02,,,0.52,,2013-02-07 23:01:00,
2013-02-07 15:11:00,42.0,41.0,30.04,SSW,205,7.0,9.0,97,0.02,,,0.52,,2013-02-07 23:11:00,
2013-02-07 15:21:00,41.0,40.0,30.04,ESE,106,1.0,9.0,97,0.05,,,0.54,,2013-02-07 23:21:00,
2013-02-07 15:31:00,42.0,41.0,30.04,North,0,0.0,6.0,98,0.04,,,0.57,,2013-02-07 23:31:00,
2013-02-07 15:41:00,42.0,41.0,30.04,North,0,0.0,6.0,98,0.04,,,0.57,,2013-02-07 23:41:00,
2013-02-07 15:52:00,42.0,41.0,30.04,North,0,0.0,7.0,98,0.05,,,0.57,,2013-02-07 23:52:00,
2013-02-07 16:01:00,42.0,42.0,30.04,North,0,0.0,0.0,99,0.02,,,0.57,,2013-02-08 00:01:00,
2013-02-07 16:11:00,42.0,42.0,30.04,North,0,0.0,0.0,99,0.02,,,0.57,,2013-02-08 00:11:00,
2013-02-07 16:21:00,42.0,42.0,30.04,North,0,0.0,5.0,99,0.01,,,0.57,,2013-02-08 00:21:00,
2013-02-07 16:31:00,42.0,42.0,30.05,North,0,0.0,0.0,99,0.01,,,0.55,,2013-02-08 00:31:00,
2013-02-07 16:41:00,42.0,42.0,30.05,North,0,0.0,0.0,99,0.01,,,0.55,,2013-02-08 00:41:00,
2013-02-07 16:52:00,42.0,42.0,30.05,North,0,0.0,0.0,99,0.00,,,0.55,,2013-02-08 00:52:00,
2013-02-07 17:01:00,42.0,42.0,30.06,North,0,0.0,0.0,99,0.01,,,0.55,,2013-02-08 01:01:00,
2013-02-07 17:11:00,42.0,42.0,30.06,North,0,0.0,0.0,99,0.01,,,0.55,,2013-02-08 01:11:00,
2013-02-07 17:21:00,42.0,42.0,30.06,North,0,0.0,0.0,100,0.01,,,0.55,,2013-02-08 01:21:00,
2013-02-07 17:31:00,42.0,42.0,30.06,North,0,0.0,0.0,100,0.01,,,0.56,,2013-02-08 01:31:00,
2013-02-07 17:41:00,42.0,42.0,30.06,North,0,0.0,0.0,100,0.01,,,0.56,,2013-02-08 01:41:00,
2013-02-07 17:51:00,42.0,42.0,30.07,North,0,0.0,0.0,100,0.01,,,0.56,,2013-02-08 01:51:00,
2013-02-07 18:01:00,42.0,42.0,30.07,North,0,0.0,0.0,100,0.00,,,0.56,,2013-02-08 02:01:00,
2013-02-07 18:11:00,42.0,42.0,30.07,North,0,0.0,0.0,100,0.00,,,0.56,,2013-02-08 02:11:00,
2013-02-07 18:21:00,42.0,42.0,30.08,North,0,0.0,0.0,100,0.00,,,0.56,,2013-02-08 02:21:00,
2013-02-07 18:31:00,41.0,41.0,30.08,North,0,0.0,0.0,100,0.00,,,0.56,,2013-02-08 02:31:00,
2013-02-07 18:42:00,41.0,41.0,30.08,North,0,0.0,0.0,100,0.00,,,0.56,,2013-02-08 02:42:00,
2013-02-07 18:52:00,41.0,41.0,30.09,North,0,0.0,0.0,100,0.00,,,0.56,,2013-02-08 02:52:00,
2013-02-07 19:01:00,41.0,41.0,30.09,North,0,0.0,0.0,100,0.00,,,0.56,,2013-02-08 03:01:00,
2013-02-07 19:11:00,41.0,41.0,30.09,North,0,0.0,0.0,100,0.00,,,0.56,,2013-02-08 03:11:00,
2013-02-07 19:22:00,41.0,41.0,30.09,North,0,0.0,5.0,100,0.00,,,0.56,,2013-02-08 03:22:00,
2013-02-07 19:31:00,40.0,40.0,30.10,East,86,4.0,5.0,100,0.00,,,0.56,,2013-02-08 03:31:00,
2013-02-07 19:41:00,40.0,40.0,30.10,East,86,4.0,5.0,100,0.00,,,0.56,,2013-02-08 03:41:00,
2013-02-07 19:52:00,40.0,40.0,30.10,NE,35,2.0,7.0,100,0.00,,,0.56,,2013-02-08 03:52:00,
2013-02-07 20:01:00,40.0,40.0,30.11,North,0,0.0,0.0,100,0.00,,,0.56,,2013-02-08 04:01:00,
2013-02-07 20:11:00,40.0,40.0,30.11,North,0,0.0,0.0,100,0.00,,,0.56,,2013-02-08 04:11:00,
2013-02-07 20:21:00,40.0,40.0,30.11,North,0,0.0,4.0,100,0.00,,,0.56,,2013-02-08 04:21:00,
2013-02-07 20:31:00,39.0,39.0,30.12,ENE,61,2.0,5.0,100,0.00,,,0.54,,2013-02-08 04:31:00,
2013-02-07 20:41:00,39.0,39.0,30.12,ENE,61,2.0,5.0,100,0.00,,,0.54,,2013-02-08 04:41:00,
2013-02-07 20:52:00,39.0,39.0,30.13,North,0,0.0,0.0,100,0.00,,,0.54,,2013-02-08 04:52:00,
2013-02-07 21:01:00,39.0,39.0,30.13,North,0,0.0,0.0,99,0.00,,,0.54,,2013-02-08 05:01:00,
2013-02-07 21:11:00,39.0,39.0,30.13,North,0,0.0,0.0,99,0.00,,,0.54,,2013-02-08 05:11:00,
2013-02-07 21:21:00,38.0,38.0,30.14,North,0,0.0,0.0,100,0.00,,,0.54,,2013-02-08 05:21:00,
2013-02-07 21:31:00,38.0,38.0,30.14,North,0,0.0,0.0,100,0.00,,,0.39,,2013-02-08 05:31:00,
2013-02-07 21:41:00,38.0,38.0,30.14,North,0,0.0,0.0,100,0.00,,,0.39,,2013-02-08 05:41:00,
2013-02-07 21:52:00,37.0,37.0,30.14,North,0,0.0,0.0,100,0.00,,,0.39,,2013-02-08 05:52:00,
2013-02-07 22:01:00,37.0,37.0,30.14,North,0,0.0,0.0,100,0.01,,,0.39,,2013-02-08 06:01:00,
2013-02-07 22:11:00,37.0,37.0,30.14,North,0,0.0,0.0,100,0.01,,,0.39,,2013-02-08 06:11:00,
2013-02-07 22:21:00,37.0,37.0,30.14,North,0,0.0,0.0,100,0.01,,,0.39,,2013-02-08 06:21:00,
2013-02-07 22:31:00,36.0,36.0,30.15,North,0,0.0,0.0,100,0.01,,,0.29,,2013-02-08 06:31:00,
2013-02-07 22:41:00,36.0,36.0,30.15,North,0,0.0,0.0,100,0.01,,,0.29,,2013-02-08 06:41:00,
2013-02-07 22:51:00,36.0,36.0,30.16,North,0,0.0,0.0,100,0.01,,,0.29,,2013-02-08 06:51:00,
2013-02-07 23:01:00,36.0,36.0,30.17,North,0,0.0,0.0,100,0.00,,,0.29,,2013-02-08 07:01:00,
2013-02-07 23:11:00,35.0,35.0,30.18,North,0,0.0,0.0,100,0.00,,,0.29,,2013-02-08 07:11:00,
2013-02-07 23:21:00,35.0,35.0,30.18,North,0,0.0,0.0,100,0.00,,,0.29,,2013-02-08 07:21:00,
2013-02-07 23:31:00,35.0,35.0,30.19,NE,56,1.0,4.0,100,0.00,,,0.21,,2013-02-08 07:31:00,
2013-02-07 23:41:00,36.0,36.0,30.18,North,0,0.0,5.0,100,0.00,,,0.21,,2013-02-08 07:41:00,
2013-02-07 23:52:00,36.0,36.0,30.18,North,0,0.0,5.0,100,0.00,,,0.21,,2013-02-08 07:52:00,